Time;durP1;ratioP1;P1;durP2;ratioP2;P2;SDS_P1;SDS_P2;PMS_P1;PMS_P2;Temp;Humidity;BMP_temperature;BMP_pressure;BME280_temperature;BME280_humidity;BME280_pressure;Samples;Min_cycle;Max_cycle;Signal;HPM_P1;HPM_P2
2023/04/29 00:00:54;;;;;;;;;;;16.40;67.50;;;11.92;100.00;95361.56;5001350;28;19909;-56
2023/04/29 00:03:20;;;;;;;;;;;16.40;67.40;;;11.91;100.00;95351.94;5001682;28;19909;-55
2023/04/29 00:05:46;;;;;;;;;;;16.40;67.30;;;11.86;100.00;95352.78;4996713;28;19989;-54
2023/04/29 00:08:12;;;;;;;;;;;16.30;67.20;;;11.86;100.00;95360.00;4982693;28;19914;-51
2023/04/29 00:10:38;;;;;;;;;;;16.30;67.20;;;11.86;100.00;95362.66;4983522;28;19937;-53
2023/04/29 00:13:04;;;;;;;;;;;16.30;67.40;;;11.87;100.00;95356.25;4982223;28;20300;-56
2023/04/29 00:15:30;;;;;;;;;;;16.20;67.40;;;11.87;100.00;95353.56;4983107;28;19909;-54
2023/04/29 00:17:55;;;;;;;;;;;16.20;67.40;;;11.84;100.00;95354.88;4982248;28;19972;-56
2023/04/29 00:20:21;;;;;;;;;;;16.30;67.50;;;11.82;100.00;95354.38;4984224;28;19941;-55
2023/04/29 00:22:48;;;;;;;;;;;16.20;67.50;;;11.83;100.00;95350.63;4983706;28;19952;-55
2023/04/29 00:25:14;;;;;;;;;;;16.20;67.60;;;11.86;100.00;95349.31;4998006;28;20013;-56
2023/04/29 00:27:40;;;;;;;;;;;16.20;67.60;;;11.85;100.00;95348.53;5001638;28;19913;-53
2023/04/29 00:30:07;;;;;;;;;;;16.20;67.70;;;11.89;100.00;95340.75;5001331;28;19909;-55
2023/04/29 00:32:33;;;;;;;;;;;16.20;67.70;;;11.91;100.00;95351.94;5002984;28;19945;-56
2023/04/29 00:34:59;;;;;;;;;;;16.30;67.70;;;11.95;100.00;95358.34;5002441;28;19909;-54
2023/04/29 00:37:25;;;;;;;;;;;16.30;67.80;;;11.99;100.00;95349.47;4984420;28;19909;-56
2023/04/29 00:39:50;;;;;;;;;;;16.30;67.80;;;12.00;100.00;95348.41;4983166;28;19909;-55
2023/04/29 00:42:17;;;;;;;;;;;16.40;67.90;;;12.02;100.00;95348.91;4990787;28;19909;-55
2023/04/29 00:44:42;;;;;;;;;;;16.40;67.80;;;12.04;100.00;95360.13;5002441;28;19921;-52
2023/04/29 00:47:10;;;;;;;;;;;16.40;67.80;;;12.09;100.00;95361.16;5001734;28;20360;-54
2023/04/29 00:49:40;;;;;;;;;;;16.40;67.80;;;12.10;100.00;95358.22;5018861;28;19916;-56
2023/04/29 00:52:07;;;;;;;;;;;16.40;67.80;;;12.14;100.00;95353.09;5009648;28;19944;-56
2023/04/29 00:54:34;;;;;;;;;;;16.50;67.90;;;12.13;100.00;95346.97;5001129;28;19917;-56
2023/04/29 00:57:02;;;;;;;;;;;16.50;67.90;;;12.11;100.00;95343.00;4986589;28;20371;-55
2023/04/29 00:59:31;;;;;;;;;;;16.50;67.90;;;12.13;100.00;95346.97;5001882;28;19909;-56
2023/04/29 01:02:02;;;;;;;;;;;16.40;67.80;;;12.13;100.00;95344.31;4983698;28;19909;-56
2023/04/29 01:04:31;;;;;;;;;;;16.50;67.90;;;12.15;100.00;95349.34;4984159;28;19917;-56
2023/04/29 01:07:09;;;;;;;;;;;16.50;68.00;;;12.19;100.00;95350.38;4984342;28;19914;-56
2023/04/29 01:10:03;;;;;;;;;;;16.50;68.00;;;12.19;100.00;95351.19;4984459;28;19941;-55
2023/04/29 01:12:46;;;;;;;;;;;16.50;68.00;;;12.14;100.00;95348.56;4982108;28;20344;-56
2023/04/29 01:15:25;;;;;;;;;;;16.50;68.00;;;12.22;100.00;95344.47;4983794;28;19924;-56
2023/04/29 01:18:13;;;;;;;;;;;16.50;68.10;;;12.25;100.00;95347.41;4982905;28;19964;-54
2023/04/29 01:20:41;;;;;;;;;;;16.50;68.10;;;12.26;100.00;95342.88;4982399;28;19911;-56
2023/04/29 01:23:06;;;;;;;;;;;16.60;68.10;;;12.25;100.00;95338.56;4982934;28;19973;-55
2023/04/29 01:25:32;;;;;;;;;;;16.60;68.90;;;12.30;100.00;95330.53;5017992;28;20395;-53
2023/04/29 01:28:48;;;;;;;;;;;16.60;68.10;;;12.29;100.00;95341.50;5019978;28;20355;-52
2023/04/29 01:31:42;;;;;;;;;;;16.60;68.10;;;12.30;100.00;95335.88;5000275;28;19936;-54
2023/04/29 01:34:29;;;;;;;;;;;16.60;68.10;;;12.29;100.00;95339.63;4991471;28;19909;-55
2023/04/29 01:37:18;;;;;;;;;;;16.60;68.10;;;12.35;100.00;95343.84;5019158;28;19909;-52
2023/04/29 01:40:11;;;;;;;;;;;16.70;68.20;;;12.39;100.00;95344.09;5012132;28;19913;-53
2023/04/29 01:42:47;;;;;;;;;;;16.70;68.20;;;12.42;100.00;95351.53;4982037;28;20291;-52
2023/04/29 01:45:16;;;;;;;;;;;16.70;68.30;;;12.40;100.00;95343.78;4992339;28;19913;-53
2023/04/29 01:47:45;;;;;;;;;;;16.70;68.30;;;12.44;100.00;95352.03;4990746;28;19948;-52
2023/04/29 01:50:11;;;;;;;;;;;16.70;68.30;;;12.39;100.00;95352.09;4992549;28;19987;-55
2023/04/29 01:52:36;;;;;;;;;;;16.70;68.40;;;12.35;100.00;95351.06;4975428;28;19946;-53
2023/04/29 01:55:03;;;;;;;;;;;16.70;68.40;;;12.37;100.00;95355.03;4972307;28;19964;-55
2023/04/29 01:57:29;;;;;;;;;;;16.60;68.40;;;12.43;100.00;95350.44;4973033;28;20288;-54
2023/04/29 01:59:56;;;;;;;;;;;16.60;68.40;;;12.41;100.00;95349.91;4972487;28;19914;-49
2023/04/29 02:02:22;;;;;;;;;;;16.60;68.50;;;12.43;100.00;95356.59;4973332;28;19909;-53
2023/04/29 02:04:49;;;;;;;;;;;16.60;68.50;;;12.39;100.00;95352.88;4972559;28;19914;-52
2023/04/29 02:07:15;;;;;;;;;;;16.70;68.70;;;12.46;100.00;95347.22;4972259;28;19909;-51
2023/04/29 02:09:41;;;;;;;;;;;16.60;68.60;;;12.49;100.00;95346.66;4973133;28;19910;-51
2023/04/29 02:12:07;;;;;;;;;;;16.70;68.70;;;12.51;100.00;95344.50;4978959;28;20261;-51
2023/04/29 02:14:33;;;;;;;;;;;16.70;68.70;;;12.47;100.00;95346.94;4991231;28;20355;-53
2023/04/29 02:16:59;;;;;;;;;;;16.70;68.70;;;12.45;100.00;95341.06;4992492;28;20398;-55
2023/04/29 02:19:25;;;;;;;;;;;16.70;68.60;;;12.45;100.00;95345.63;4990300;28;19993;-51
2023/04/29 02:21:50;;;;;;;;;;;16.70;68.60;;;12.43;100.00;95343.22;4981477;28;19910;-51
2023/04/29 02:24:16;;;;;;;;;;;16.70;68.60;;;12.43;100.00;95340.56;4980545;28;19955;-55
2023/04/29 02:26:42;;;;;;;;;;;16.70;68.60;;;12.44;100.00;95336.00;4992115;28;20291;-52
2023/04/29 02:29:08;;;;;;;;;;;16.60;68.50;;;12.41;100.00;95333.91;4992456;28;19920;-54
2023/04/29 02:31:34;;;;;;;;;;;16.70;68.60;;;12.37;100.00;95327.53;4973446;28;19933;-52
2023/04/29 02:33:59;;;;;;;;;;;16.60;68.60;;;12.37;100.00;95327.53;4972966;28;20295;-51
2023/04/29 02:36:25;;;;;;;;;;;16.60;68.60;;;12.38;100.00;95332.59;4972320;28;19909;-53
2023/04/29 02:38:54;;;;;;;;;;;16.60;69.30;;;12.37;100.00;95333.66;4972889;28;19909;-52
2023/04/29 02:41:21;;;;;;;;;;;16.60;68.60;;;12.36;100.00;95339.31;4972793;28;19910;-55
2023/04/29 02:43:47;;;;;;;;;;;16.60;68.60;;;12.35;100.00;95332.38;5011180;28;19916;-50
2023/04/29 02:46:15;;;;;;;;;;;16.60;68.60;;;12.32;100.00;95336.41;5011795;28;19941;-51
2023/04/29 02:48:41;;;;;;;;;;;16.60;68.60;;;12.30;100.00;95333.22;5000109;28;19951;-51
2023/04/29 02:51:07;;;;;;;;;;;16.60;68.60;;;12.26;100.00;95332.19;4986948;28;20307;-53
2023/04/29 02:53:32;;;;;;;;;;;16.60;68.60;;;12.25;100.00;95344.75;4973785;28;19964;-50
2023/04/29 02:55:58;;;;;;;;;;;16.70;68.60;;;12.27;100.00;95339.91;4991644;28;19918;-54
2023/04/29 02:58:24;;;;;;;;;;;16.70;68.60;;;12.30;100.00;95341.22;4992125;28;19909;-53
2023/04/29 03:00:50;;;;;;;;;;;16.60;68.50;;;12.29;100.00;95344.97;4979076;28;19909;-50
2023/04/29 03:03:16;;;;;;;;;;;16.60;68.60;;;12.31;100.00;95337.47;4972511;28;19979;-50
2023/04/29 03:05:42;;;;;;;;;;;16.60;68.60;;;12.33;100.00;95337.19;4974208;28;20019;-50
2023/04/29 03:08:09;;;;;;;;;;;16.60;68.60;;;12.30;100.00;95335.88;4992314;28;19913;-52
2023/04/29 03:10:35;;;;;;;;;;;16.60;68.60;;;12.29;100.00;95331.63;4992042;28;19909;-51
2023/04/29 03:13:01;;;;;;;;;;;16.60;68.60;;;12.26;100.00;95332.19;5004593;28;20382;-51
2023/04/29 03:15:27;;;;;;;;;;;16.60;68.60;;;12.25;100.00;95339.41;5011585;28;19909;-51
2023/04/29 03:17:53;;;;;;;;;;;16.60;68.60;;;12.25;100.00;95338.56;5004574;28;20391;-54
2023/04/29 03:20:19;;;;;;;;;;;16.60;68.60;;;12.22;100.00;95341.81;4976294;28;19910;-53
2023/04/29 03:22:45;;;;;;;;;;;16.50;68.60;;;12.21;100.00;95341.03;4976091;28;20327;-53
2023/04/29 03:25:12;;;;;;;;;;;16.50;68.70;;;12.20;100.00;95347.44;4989887;28;20269;-51
2023/04/29 03:27:38;;;;;;;;;;;16.50;68.60;;;12.16;100.00;95340.25;4995488;28;19920;-50
2023/04/29 03:30:05;;;;;;;;;;;16.50;68.60;;;12.12;100.00;95328.56;4994302;28;20360;-49
2023/04/29 03:32:31;;;;;;;;;;;16.50;68.60;;;12.09;100.00;95326.44;4995375;28;19913;-50
2023/04/29 03:34:57;;;;;;;;;;;16.50;68.60;;;12.08;100.00;95328.31;4995150;28;20371;-49
2023/04/29 03:37:23;;;;;;;;;;;16.50;68.60;;;12.08;100.00;95330.19;5010651;28;19916;-54
2023/04/29 03:39:48;;;;;;;;;;;16.50;68.60;;;12.05;100.00;95320.88;5014382;28;19909;-52
2023/04/29 03:42:14;;;;;;;;;;;16.50;68.60;;;12.03;100.00;95318.50;5005845;28;19947;-53
2023/04/29 03:44:40;;;;;;;;;;;16.40;68.50;;;11.97;100.00;95311.59;4993597;28;19924;-50
2023/04/29 03:47:06;;;;;;;;;;;16.40;68.40;;;11.93;100.00;95312.44;4994629;28;20012;-50
2023/04/29 03:49:32;;;;;;;;;;;16.40;68.40;;;11.87;100.00;95305.53;4993709;28;19910;-52
2023/04/29 03:51:58;;;;;;;;;;;16.30;68.40;;;11.85;100.00;95303.16;4982560;28;20418;-51
2023/04/29 03:54:24;;;;;;;;;;;16.20;68.40;;;11.78;100.00;95311.44;4999234;23;19943;-49
2023/04/29 03:56:49;;;;;;;;;;;16.20;68.40;;;11.73;100.00;95310.69;4993365;28;19925;-54
2023/04/29 03:59:15;;;;;;;;;;;16.20;68.40;;;11.61;100.00;95305.69;4994115;28;19916;-54
2023/04/29 04:01:41;;;;;;;;;;;16.10;68.50;;;11.62;100.00;95303.81;4993876;28;20374;-52
2023/04/29 04:04:07;;;;;;;;;;;16.10;68.60;;;11.68;100.00;95318.72;4994520;28;19910;-49
2023/04/29 04:06:32;;;;;;;;;;;16.00;68.60;;;11.70;100.00;95327.25;4992899;28;20050;-50
2023/04/29 04:08:58;;;;;;;;;;;16.00;68.70;;;11.71;100.00;95324.28;5000842;23;19929;-50
2023/04/29 04:11:24;;;;;;;;;;;16.10;69.60;;;11.71;100.00;95324.28;4993425;28;19944;-51
2023/04/29 04:13:49;;;;;;;;;;;16.10;68.90;;;11.72;100.00;95317.06;4994306;28;20287;-49
2023/04/29 04:16:15;;;;;;;;;;;16.10;68.90;;;11.74;100.00;95315.72;5012028;28;19913;-50
2023/04/29 04:18:41;;;;;;;;;;;16.10;68.90;;;11.74;100.00;95314.94;5013103;28;20364;-50
2023/04/29 04:21:08;;;;;;;;;;;16.10;68.80;;;11.73;100.00;95316.03;5013846;28;19909;-53
2023/04/29 04:23:35;;;;;;;;;;;16.10;68.80;;;11.75;100.00;95322.69;5012809;28;20047;-51
2023/04/29 04:26:01;;;;;;;;;;;16.10;68.70;;;11.76;100.00;95331.47;5013690;28;19913;-50
2023/04/29 04:28:27;;;;;;;;;;;16.20;68.80;;;11.70;100.00;95336.03;5013383;28;19909;-49
2023/04/29 04:30:52;;;;;;;;;;;16.20;68.80;;;11.71;100.00;95342.97;5000255;28;19947;-51
2023/04/29 04:33:18;;;;;;;;;;;16.10;68.70;;;11.75;100.00;95345.88;4994003;28;19914;-49
2023/04/29 04:35:44;;;;;;;;;;;16.20;68.80;;;11.75;100.00;95356.53;4998320;28;20371;-50
2023/04/29 04:38:14;;;;;;;;;;;16.20;68.80;;;11.79;100.00;95354.94;5033313;28;19932;-52
2023/04/29 04:40:43;;;;;;;;;;;16.20;68.70;;;11.79;100.00;95349.59;5033113;28;19912;-56
2023/04/29 04:43:09;;;;;;;;;;;16.30;68.80;;;11.80;100.00;95351.19;5017221;28;19920;-54
2023/04/29 04:45:35;;;;;;;;;;;16.30;68.80;;;11.80;100.00;95356.53;5013452;28;19917;-49
2023/04/29 04:48:01;;;;;;;;;;;16.30;68.70;;;11.78;100.00;95362.16;5012363;28;20074;-52
2023/04/29 04:50:28;;;;;;;;;;;16.30;68.70;;;11.79;100.00;95363.75;5013228;28;19916;-50
2023/04/29 04:52:57;;;;;;;;;;;16.30;68.70;;;11.81;100.00;95366.13;5013146;28;20287;-51
2023/04/29 04:55:23;;;;;;;;;;;16.30;68.70;;;11.83;100.00;95369.31;5028288;28;19916;-51
2023/04/29 04:57:50;;;;;;;;;;;16.30;68.70;;;11.82;100.00;95371.19;5032408;28;19912;-49
2023/04/29 05:00:16;;;;;;;;;;;16.30;68.70;;;11.87;100.00;95367.72;5031230;28;19908;-51
2023/04/29 05:02:41;;;;;;;;;;;16.40;68.70;;;11.91;100.00;95363.44;5032813;28;19912;-55
2023/04/29 05:05:08;;;;;;;;;;;16.40;68.70;;;11.97;100.00;95372.19;5032676;28;19927;-52
2023/04/29 05:07:34;;;;;;;;;;;16.50;68.60;;;12.03;100.00;95371.06;5013062;28;20007;-54
2023/04/29 05:10:01;;;;;;;;;;;16.60;68.70;;;12.08;100.00;95372.91;5013036;28;19959;-51
2023/04/29 05:12:30;;;;;;;;;;;16.70;68.60;;;12.09;100.00;95369.16;5011538;28;20272;-50
2023/04/29 05:14:56;;;;;;;;;;;16.70;68.50;;;12.09;100.00;95372.63;5012680;28;20016;-50
2023/04/29 05:17:22;;;;;;;;;;;16.80;68.40;;;12.19;100.00;95375.22;5011861;28;19916;-52
2023/04/29 05:19:48;;;;;;;;;;;16.80;68.30;;;12.37;100.00;95380.94;5012386;28;19909;-52
2023/04/29 05:22:14;;;;;;;;;;;17.00;68.30;;;12.61;100.00;95383.69;5012559;28;19909;-54
2023/04/29 05:24:40;;;;;;;;;;;17.20;68.30;;;12.84;100.00;95382.91;5003786;28;19909;-55
2023/04/29 05:27:05;;;;;;;;;;;17.40;68.20;;;13.07;100.00;95383.22;5022467;28;19917;-55
2023/04/29 05:29:31;;;;;;;;;;;17.70;68.10;;;13.26;100.00;95394.78;5030868;28;19955;-50
2023/04/29 05:31:58;;;;;;;;;;;17.90;68.00;;;13.51;100.00;95392.88;5032079;28;20442;-53
2023/04/29 05:34:24;;;;;;;;;;;18.20;67.80;;;13.69;100.00;95397.44;5021205;28;20008;-55
2023/04/29 05:36:50;;;;;;;;;;;18.40;67.50;;;13.88;100.00;95397.44;5009626;28;19917;-51
2023/04/29 05:39:16;;;;;;;;;;;18.70;67.30;;;13.85;100.00;95392.66;5006863;28;19913;-51
2023/04/29 05:41:42;;;;;;;;;;;18.90;67.00;;;14.06;100.00;95402.00;5014207;28;19916;-56
2023/04/29 05:44:08;;;;;;;;;;;19.10;66.80;;;14.16;100.00;95398.38;5031963;28;19916;-54
2023/04/29 05:46:34;;;;;;;;;;;19.20;66.60;;;14.34;100.00;95404.81;5031214;28;20289;-54
2023/04/29 05:49:00;;;;;;;;;;;19.40;66.60;;;14.37;100.00;95393.50;5011163;28;19909;-52
2023/04/29 05:51:27;;;;;;;;;;;19.50;66.50;;;14.50;100.00;95400.00;5011731;28;20004;-51
2023/04/29 05:53:53;;;;;;;;;;;19.70;66.30;;;14.61;100.00;95412.19;5010677;28;19952;-50
2023/04/29 05:56:19;;;;;;;;;;;19.80;66.10;;;14.73;100.00;95407.16;5011856;28;20333;-51
2023/04/29 05:58:45;;;;;;;;;;;19.90;65.90;;;14.83;99.87;95414.22;5012281;28;19931;-52
2023/04/29 06:01:11;;;;;;;;;;;20.00;65.80;;;14.64;97.00;95414.28;5011286;28;19909;-52
2023/04/29 06:03:37;;;;;;;;;;;20.10;65.60;;;14.65;98.46;95417.75;5012025;28;19955;-52
2023/04/29 06:06:03;;;;;;;;;;;20.10;65.30;;;14.75;97.81;95423.72;5010672;28;20419;-52
2023/04/29 06:08:29;;;;;;;;;;;20.10;65.20;;;14.77;98.18;95413.50;5010295;28;20019;-53
2023/04/29 06:10:55;;;;;;;;;;;20.10;65.00;;;14.81;98.70;95421.75;5011209;28;19921;-52
2023/04/29 06:13:21;;;;;;;;;;;20.20;64.90;;;14.88;98.91;95416.78;5011019;28;19916;-50
2023/04/29 06:15:46;;;;;;;;;;;20.20;64.80;;;14.90;97.55;95406.56;5011757;28;19976;-57
2023/04/29 06:18:12;;;;;;;;;;;20.30;64.60;;;14.88;95.78;95408.75;5010160;28;20576;-50
2023/04/29 06:20:38;;;;;;;;;;;20.30;64.30;;;14.89;96.36;95412.25;5011175;28;19909;-52
2023/04/29 06:23:04;;;;;;;;;;;20.40;64.20;;;14.99;96.84;95412.06;5011670;28;19917;-50
2023/04/29 06:25:30;;;;;;;;;;;20.50;64.10;;;15.07;95.88;95410.56;5010454;28;20504;-50
2023/04/29 06:27:57;;;;;;;;;;;20.60;64.00;;;15.16;96.68;95417.63;5012067;28;19909;-51
2023/04/29 06:30:23;;;;;;;;;;;20.60;63.80;;;15.18;95.56;95415.44;5012917;28;19913;-50
2023/04/29 06:32:48;;;;;;;;;;;20.70;63.80;;;15.26;95.63;95422.00;5011915;28;20391;-51
2023/04/29 06:35:14;;;;;;;;;;;20.70;63.70;;;15.30;94.63;95420.31;5011832;28;20426;-53
2023/04/29 06:37:40;;;;;;;;;;;20.80;63.70;;;15.35;93.88;95422.09;5028688;28;20007;-52
2023/04/29 06:40:07;;;;;;;;;;;20.80;63.60;;;15.47;93.11;95422.41;5031499;28;19962;-50
2023/04/29 06:42:33;;;;;;;;;;;20.90;63.30;;;15.55;94.56;95432.44;5030279;28;20496;-50
2023/04/29 06:44:59;;;;;;;;;;;21.00;63.40;;;15.66;94.41;95431.13;5031373;28;19921;-50
2023/04/29 06:47:25;;;;;;;;;;;21.00;63.30;;;15.76;92.27;95429.34;5030097;28;20394;-55
2023/04/29 06:49:51;;;;;;;;;;;21.20;63.20;;;15.79;92.27;95428.75;5019058;28;20367;-51
2023/04/29 06:52:17;;;;;;;;;;;21.30;63.10;;;15.87;90.79;95436.13;5017842;28;19909;-51
2023/04/29 06:54:43;;;;;;;;;;;21.40;62.80;;;16.01;90.48;95428.81;5014439;28;19920;-54
2023/04/29 06:57:09;;;;;;;;;;;21.50;62.70;;;16.06;89.88;95427.91;5015319;28;19920;-50
2023/04/29 06:59:35;;;;;;;;;;;21.60;62.50;;;16.09;90.68;95436.16;5015727;28;20372;-51
2023/04/29 07:02:01;;;;;;;;;;;21.70;62.20;;;16.17;89.22;95426.59;5035250;28;20007;-50
2023/04/29 07:04:27;;;;;;;;;;;21.90;62.00;;;16.21;89.16;95429.47;5035120;28;19908;-52
2023/04/29 07:06:53;;;;;;;;;;;22.00;61.80;;;16.32;90.25;95431.59;5021425;28;19913;-51
2023/04/29 07:09:18;;;;;;;;;;;22.10;61.70;;;16.25;89.09;95433.91;5015211;28;20404;-51
2023/04/29 07:11:44;;;;;;;;;;;22.10;61.40;;;16.45;90.90;95429.16;5017020;28;19912;-53
2023/04/29 07:14:10;;;;;;;;;;;22.20;61.30;;;16.54;89.27;95428.13;5034809;28;20394;-54
2023/04/29 07:16:36;;;;;;;;;;;22.20;61.20;;;16.60;88.85;95420.75;5000083;28;20039;-52
2023/04/29 07:19:02;;;;;;;;;;;22.40;61.10;;;16.72;88.70;95425.56;5023534;28;19909;-51
2023/04/29 07:21:29;;;;;;;;;;;22.50;61.00;;;16.88;87.63;95418.72;5014926;28;20007;-51
2023/04/29 07:23:55;;;;;;;;;;;22.60;60.80;;;17.03;86.13;95428.31;5014104;28;20279;-53
2023/04/29 07:26:21;;;;;;;;;;;22.80;60.60;;;17.04;84.17;95430.66;5014726;28;19913;-50
2023/04/29 07:28:48;;;;;;;;;;;22.90;60.30;;;17.16;85.10;95432.78;5014964;28;19909;-54
2023/04/29 07:31:15;;;;;;;;;;;23.00;60.00;;;17.32;84.29;95447.44;5013911;28;19916;-53
2023/04/29 07:33:41;;;;;;;;;;;23.10;59.90;;;17.37;82.76;95451.91;5014807;28;19909;-53
2023/04/29 07:36:07;;;;;;;;;;;23.20;59.80;;;17.46;83.78;95449.25;5013361;28;20311;-52
2023/04/29 07:38:33;;;;;;;;;;;23.20;59.60;;;17.47;81.59;95450.81;5014886;28;20334;-53
2023/04/29 07:40:59;;;;;;;;;;;23.30;59.40;;;17.46;81.71;95451.94;4996921;28;20007;-53
2023/04/29 07:43:25;;;;;;;;;;;23.50;59.30;;;17.37;82.02;95445.72;5013308;28;19909;-51
2023/04/29 07:45:51;;;;;;;;;;;23.60;59.10;;;17.41;82.86;95455.53;5014260;28;19971;-54
2023/04/29 07:48:17;;;;;;;;;;;23.60;58.90;;;17.39;81.94;95452.34;5020430;28;19908;-54
2023/04/29 07:50:43;;;;;;;;;;;23.70;58.70;;;17.40;82.59;95453.19;5016669;28;19909;-53
2023/04/29 07:53:08;;;;;;;;;;;23.70;58.50;;;17.26;82.39;95454.03;5014631;28;19909;-56
2023/04/29 07:55:37;;;;;;;;;;;23.70;58.40;;;17.29;81.81;95461.50;5029864;28;19916;-52
2023/04/29 07:58:02;;;;;;;;;;;23.70;58.30;;;17.35;83.25;95457.56;5017047;28;20011;-52
2023/04/29 08:00:28;;;;;;;;;;;23.80;58.20;;;17.72;81.81;95452.00;5012757;28;20013;-56
2023/04/29 08:02:56;;;;;;;;;;;24.10;58.00;;;18.07;78.49;95460.19;5012353;28;20347;-53
2023/04/29 08:05:23;;;;;;;;;;;24.50;57.70;;;18.59;78.73;95454.84;5014030;28;20364;-55
2023/04/29 08:07:50;;;;;;;;;;;25.10;57.50;;;18.90;75.65;95457.38;5030471;28;19916;-59
2023/04/29 08:10:17;;;;;;;;;;;25.70;57.30;;;19.41;74.20;95458.34;5033871;28;20330;-55
2023/04/29 08:12:46;;;;;;;;;;;26.40;56.90;;;19.49;71.75;95454.00;5012594;28;19944;-53
2023/04/29 08:15:12;;;;;;;;;;;26.90;56.50;;;19.81;72.65;95450.72;5012916;28;20055;-52
2023/04/29 08:17:38;;;;;;;;;;;27.20;56.00;;;20.01;71.67;95451.88;5012030;28;20330;-54
2023/04/29 08:20:06;;;;;;;;;;;27.20;55.60;;;19.85;71.68;95458.97;5013303;28;19916;-56
2023/04/29 08:22:32;;;;;;;;;;;27.10;55.50;;;19.70;72.74;95451.41;5013548;28;19971;-56
2023/04/29 08:24:58;;;;;;;;;;;26.70;55.30;;;19.64;71.76;95456.19;5022932;28;19959;-54
2023/04/29 08:27:24;;;;;;;;;;;26.30;55.50;;;19.50;70.67;95463.72;5033329;28;19909;-57
2023/04/29 08:29:50;;;;;;;;;;;26.00;55.50;;;19.18;70.54;95455.09;5032476;28;19923;-55
2023/04/29 08:32:16;;;;;;;;;;;25.60;55.30;;;19.04;71.05;95459.88;5020822;28;20371;-56
2023/04/29 08:34:43;;;;;;;;;;;25.30;55.30;;;18.97;72.75;95468.47;5013526;28;19909;-54
2023/04/29 08:37:10;;;;;;;;;;;25.10;55.40;;;19.27;70.93;95461.22;5012934;28;19913;-57
2023/04/29 08:39:36;;;;;;;;;;;25.40;55.40;;;19.67;68.29;95458.25;5013453;28;19909;-56
2023/04/29 08:42:09;;;;;;;;;;;25.80;55.10;;;19.80;65.70;95459.13;5009628;28;19918;-52
2023/04/29 08:44:35;;;;;;;;;;;26.30;54.80;;;20.25;65.61;95459.34;5013353;28;20364;-54
2023/04/29 08:47:02;;;;;;;;;;;26.70;54.20;;;20.73;62.62;95457.25;5013080;28;19913;-57
2023/04/29 08:49:29;;;;;;;;;;;27.20;54.00;;;20.83;62.30;95464.16;5028204;28;19908;-53
2023/04/29 08:51:55;;;;;;;;;;;27.60;53.60;;;20.91;62.81;95455.97;5033009;28;19909;-57
2023/04/29 08:54:20;;;;;;;;;;;28.00;53.10;;;21.06;59.90;95457.25;5031465;28;19916;-52
2023/04/29 08:56:47;;;;;;;;;;;28.10;52.80;;;21.32;60.05;95446.13;5032698;28;20279;-50
2023/04/29 08:59:17;;;;;;;;;;;28.20;52.60;;;21.31;60.81;95447.28;5031563;28;19912;-53
2023/04/29 09:01:49;;;;;;;;;;;28.20;52.20;;;21.38;61.60;95450.25;5022010;28;19999;-54
2023/04/29 09:04:40;;;;;;;;;;;28.20;52.00;;;21.56;61.32;95450.84;5012883;28;19927;-56
2023/04/29 09:07:07;;;;;;;;;;;28.40;51.50;;;21.71;59.19;95446.63;5011814;28;20368;-56
2023/04/29 09:09:34;;;;;;;;;;;28.60;51.50;;;21.98;57.26;95444.38;5012741;28;20004;-53
2023/04/29 09:12:00;;;;;;;;;;;28.90;51.40;;;22.32;56.61;95446.63;5008757;28;19920;-54
2023/04/29 09:14:29;;;;;;;;;;;29.20;51.30;;;22.31;55.61;95450.47;5011990;28;19972;-53
2023/04/29 09:16:54;;;;;;;;;;;29.30;51.10;;;22.45;53.66;95441.94;5011637;28;20283;-54
2023/04/29 09:19:32;;;;;;;;;;;29.40;50.90;;;22.40;56.16;95439.47;5011743;28;19913;-55
2023/04/29 09:22:00;;;;;;;;;;;29.30;50.60;;;22.58;57.45;95443.47;5012711;28;20375;-56
2023/04/29 09:24:29;;;;;;;;;;;29.40;50.50;;;22.85;52.24;95444.63;5018572;28;20334;-56
2023/04/29 09:26:55;;;;;;;;;;;29.70;50.40;;;23.01;52.37;95443.91;5032390;28;19913;-55
2023/04/29 09:29:21;;;;;;;;;;;29.90;49.80;;;23.05;53.32;95448.28;5032555;28;20359;-55
2023/04/29 09:31:49;;;;;;;;;;;30.10;49.40;;;23.03;51.55;95447.88;5012242;28;19963;-51
2023/04/29 09:34:15;;;;;;;;;;;30.20;49.20;;;23.20;50.87;95448.66;5012350;28;19909;-56
2023/04/29 09:36:53;;;;;;;;;;;30.40;49.00;;;23.19;52.56;95449.78;5011640;28;20371;-52
2023/04/29 09:39:23;;;;;;;;;;;30.30;48.80;;;23.29;50.85;95439.22;5012534;28;19913;-57
2023/04/29 09:41:52;;;;;;;;;;;30.60;48.60;;;23.63;49.12;95441.56;5003061;28;19917;-57
2023/04/29 09:44:24;;;;;;;;;;;30.80;48.50;;;23.88;54.62;95439.47;5012412;28;20308;-56
2023/04/29 09:47:08;;;;;;;;;;;31.10;48.10;;;24.20;48.94;95434.78;5012381;28;19936;-58
2023/04/29 09:49:44;;;;;;;;;;;31.40;47.80;;;24.27;51.46;95436.88;5008862;28;20319;-54
2023/04/29 09:52:17;;;;;;;;;;;31.70;47.60;;;24.63;52.25;95436.50;5012354;28;19964;-58
2023/04/29 09:54:44;;;;;;;;;;;32.00;47.30;;;25.09;49.33;95439.31;5024435;23;19893;-51
2023/04/29 09:57:12;;;;;;;;;;;32.40;46.90;;;25.21;46.34;95429.44;5032077;28;19922;-48
2023/04/29 09:59:41;;;;;;;;;;;32.60;46.00;;;25.22;45.72;95434.50;5032336;28;19948;-50
2023/04/29 10:02:14;;;;;;;;;;;32.70;45.60;;;25.63;47.08;95426.63;5022694;28;19956;-51
2023/04/29 10:04:43;;;;;;;;;;;32.90;45.70;;;25.76;42.24;95425.31;5035057;28;20317;-53
2023/04/29 10:07:15;;;;;;;;;;;33.20;45.50;;;26.20;43.82;95426.75;5037952;28;19920;-49
2023/04/29 10:09:42;;;;;;;;;;;33.40;45.80;;;25.86;41.82;95421.19;5031469;28;19908;-48
2023/04/29 10:12:09;;;;;;;;;;;33.70;44.50;;;25.81;42.81;95421.50;5003249;28;28725;-49
2023/04/29 10:14:47;;;;;;;;;;;33.80;44.00;;;25.57;44.98;95412.56;5009461;28;20389;-51
2023/04/29 10:17:30;;;;;;;;;;;33.90;43.90;;;25.63;46.21;95418.47;5048516;28;19974;-50
2023/04/29 10:20:04;;;;;;;;;;;33.90;43.80;;;25.56;46.01;95413.69;5015553;28;20283;-52
2023/04/29 10:22:51;;;;;;;;;;;33.90;43.50;;;25.54;44.56;95413.28;5032197;28;19908;-49
2023/04/29 10:25:20;;;;;;;;;;;34.00;43.50;;;25.76;44.49;95417.13;5061591;28;19912;-50
2023/04/29 10:27:49;;;;;;;;;;;34.00;43.40;;;25.74;43.61;95413.19;5076636;28;19908;-52
2023/04/29 10:30:17;;;;;;;;;;;34.10;43.10;;;26.08;41.51;95408.66;5068555;28;19946;-51
2023/04/29 10:32:45;;;;;;;;;;;34.10;42.80;;;26.15;43.78;95399.78;5056087;28;19916;-51
2023/04/29 10:35:14;;;;;;;;;;;34.30;42.70;;;25.48;42.18;95395.66;5056296;28;19955;-51
2023/04/29 10:37:42;;;;;;;;;;;34.40;42.30;;;25.50;43.70;95393.31;5055040;28;19908;-49
2023/04/29 10:40:17;;;;;;;;;;;34.30;41.90;;;25.69;43.53;95383.50;5056270;28;19919;-48
2023/04/29 10:42:44;;;;;;;;;;;34.30;41.90;;;25.46;42.77;95388.97;5055187;28;19915;-49
2023/04/29 10:45:23;;;;;;;;;;;34.30;41.60;;;25.25;42.54;95381.22;5056224;28;19999;-49
2023/04/29 10:48:01;;;;;;;;;;;34.20;41.30;;;25.28;43.50;95383.22;5055575;28;19916;-48
2023/04/29 10:50:33;;;;;;;;;;;34.20;40.80;;;25.30;42.73;95383.66;5055705;28;19969;-49
2023/04/29 10:53:04;;;;;;;;;;;34.10;40.80;;;25.47;43.98;95376.91;5055880;28;19930;-50
2023/04/29 10:55:34;;;;;;;;;;;34.00;40.80;;;25.17;42.53;95380.31;5054746;28;20006;-52
2023/04/29 10:58:02;;;;;;;;;;;33.80;40.70;;;25.42;40.58;95366.34;5022171;28;20374;-49
2023/04/29 11:00:31;;;;;;;;;;;33.80;40.80;;;25.62;42.92;95370.53;5047792;28;19916;-48
2023/04/29 11:03:04;;;;;;;;;;;33.90;40.70;;;25.80;41.01;95363.41;5034749;28;20351;-50
2023/04/29 11:05:34;;;;;;;;;;;34.20;40.60;;;26.10;40.85;95361.88;5035799;28;20393;-51
2023/04/29 11:08:21;;;;;;;;;;;34.50;40.30;;;25.88;42.43;95361.59;5036094;28;19913;-50
2023/04/29 11:11:00;;;;;;;;;;;34.70;40.00;;;26.14;39.87;95360.78;5035757;28;20017;-48
2023/04/29 11:13:32;;;;;;;;;;;34.80;39.80;;;26.28;39.54;95358.22;5051319;28;19908;-49
2023/04/29 11:16:06;;;;;;;;;;;34.90;39.60;;;26.48;38.56;95358.91;5055716;28;19912;-49